sensor_id;sensor_type;location;lat;lon;timestamp;P1;durP1;ratioP1;P2;durP2;ratioP2
79410;SDS011;69635;50.964;6.948;2023-12-20T00:00:56;9.70;;;5.57;;
79410;SDS011;69635;50.964;6.948;2023-12-20T00:03:22;10.75;;;4.60;;
79410;SDS011;69635;50.964;6.948;2023-12-20T00:05:48;10.02;;;4.82;;
79410;SDS011;69635;50.964;6.948;2023-12-20T00:08:14;13.50;;;6.38;;
79410;SDS011;69635;50.964;6.948;2023-12-20T00:10:40;12.68;;;5.20;;
79410;SDS011;69635;50.964;6.948;2023-12-20T00:13:06;13.13;;;5.65;;
79410;SDS011;69635;50.964;6.948;2023-12-20T00:15:32;11.73;;;6.18;;
79410;SDS011;69635;50.964;6.948;2023-12-20T00:17:58;9.20;;;3.92;;
79410;SDS011;69635;50.964;6.948;2023-12-20T00:20:24;11.32;;;5.20;;
79410;SDS011;69635;50.964;6.948;2023-12-20T00:22:49;13.70;;;6.10;;
79410;SDS011;69635;50.964;6.948;2023-12-20T00:25:15;15.52;;;6.22;;
79410;SDS011;69635;50.964;6.948;2023-12-20T00:27:40;10.38;;;5.45;;
79410;SDS011;69635;50.964;6.948;2023-12-20T00:30:06;8.52;;;5.30;;
79410;SDS011;69635;50.964;6.948;2023-12-20T00:32:32;6.65;;;3.50;;
79410;SDS011;69635;50.964;6.948;2023-12-20T00:34:58;6.30;;;3.60;;
79410;SDS011;69635;50.964;6.948;2023-12-20T00:37:23;7.55;;;3.50;;
79410;SDS011;69635;50.964;6.948;2023-12-20T00:39:50;4.40;;;2.45;;
79410;SDS011;69635;50.964;6.948;2023-12-20T00:42:16;7.13;;;3.70;;
79410;SDS011;69635;50.964;6.948;2023-12-20T00:44:41;6.40;;;3.60;;
79410;SDS011;69635;50.964;6.948;2023-12-20T00:47:07;3.65;;;1.80;;
79410;SDS011;69635;50.964;6.948;2023-12-20T00:49:32;5.07;;;2.70;;
79410;SDS011;69635;50.964;6.948;2023-12-20T00:51:57;4.78;;;1.95;;
79410;SDS011;69635;50.964;6.948;2023-12-20T00:54:23;8.63;;;2.45;;
79410;SDS011;69635;50.964;6.948;2023-12-20T00:56:48;7.25;;;2.70;;
79410;SDS011;69635;50.964;6.948;2023-12-20T00:59:14;6.43;;;2.40;;
79410;SDS011;69635;50.964;6.948;2023-12-20T01:01:41;5.88;;;1.95;;
79410;SDS011;69635;50.964;6.948;2023-12-20T01:04:07;4.38;;;2.28;;
79410;SDS011;69635;50.964;6.948;2023-12-20T01:06:32;2.25;;;1.50;;
79410;SDS011;69635;50.964;6.948;2023-12-20T01:08:58;3.80;;;2.28;;
79410;SDS011;69635;50.964;6.948;2023-12-20T01:11:23;3.28;;;1.60;;
79410;SDS011;69635;50.964;6.948;2023-12-20T01:13:49;3.03;;;1.85;;
79410;SDS011;69635;50.964;6.948;2023-12-20T01:16:14;2.95;;;1.65;;
79410;SDS011;69635;50.964;6.948;2023-12-20T01:18:39;3.15;;;1.63;;
79410;SDS011;69635;50.964;6.948;2023-12-20T01:21:05;5.10;;;2.15;;
79410;SDS011;69635;50.964;6.948;2023-12-20T01:23:31;3.90;;;1.77;;
79410;SDS011;69635;50.964;6.948;2023-12-20T01:25:57;3.85;;;1.63;;
79410;SDS011;69635;50.964;6.948;2023-12-20T01:28:24;5.32;;;2.40;;
79410;SDS011;69635;50.964;6.948;2023-12-20T01:30:50;6.45;;;2.45;;
79410;SDS011;69635;50.964;6.948;2023-12-20T01:33:15;6.93;;;2.80;;
79410;SDS011;69635;50.964;6.948;2023-12-20T01:35:41;5.38;;;2.53;;
79410;SDS011;69635;50.964;6.948;2023-12-20T01:38:06;10.27;;;3.83;;
79410;SDS011;69635;50.964;6.948;2023-12-20T01:40:32;9.00;;;3.60;;
79410;SDS011;69635;50.964;6.948;2023-12-20T01:43:00;9.30;;;3.78;;
79410;SDS011;69635;50.964;6.948;2023-12-20T01:45:26;10.20;;;4.85;;
79410;SDS011;69635;50.964;6.948;2023-12-20T01:47:52;9.52;;;3.72;;
79410;SDS011;69635;50.964;6.948;2023-12-20T01:50:18;11.25;;;4.55;;
79410;SDS011;69635;50.964;6.948;2023-12-20T01:52:43;7.35;;;3.83;;
79410;SDS011;69635;50.964;6.948;2023-12-20T01:55:10;9.43;;;4.10;;
79410;SDS011;69635;50.964;6.948;2023-12-20T01:57:41;7.93;;;4.28;;
79410;SDS011;69635;50.964;6.948;2023-12-20T02:00:08;5.40;;;3.53;;
79410;SDS011;69635;50.964;6.948;2023-12-20T02:02:36;10.27;;;4.63;;
79410;SDS011;69635;50.964;6.948;2023-12-20T02:05:03;11.57;;;5.60;;
79410;SDS011;69635;50.964;6.948;2023-12-20T02:07:30;11.13;;;5.28;;
79410;SDS011;69635;50.964;6.948;2023-12-20T02:09:56;9.93;;;4.90;;
79410;SDS011;69635;50.964;6.948;2023-12-20T02:12:21;9.77;;;4.38;;
79410;SDS011;69635;50.964;6.948;2023-12-20T02:14:47;13.80;;;5.43;;
79410;SDS011;69635;50.964;6.948;2023-12-20T02:17:13;14.50;;;5.82;;
79410;SDS011;69635;50.964;6.948;2023-12-20T02:19:39;13.88;;;5.05;;
79410;SDS011;69635;50.964;6.948;2023-12-20T02:22:11;11.15;;;4.03;;
79410;SDS011;69635;50.964;6.948;2023-12-20T02:24:37;10.98;;;4.70;;
79410;SDS011;69635;50.964;6.948;2023-12-20T02:27:03;14.10;;;3.67;;
79410;SDS011;69635;50.964;6.948;2023-12-20T02:29:30;9.75;;;4.05;;
79410;SDS011;69635;50.964;6.948;2023-12-20T02:31:56;10.93;;;3.72;;
79410;SDS011;69635;50.964;6.948;2023-12-20T02:34:21;5.53;;;2.78;;
79410;SDS011;69635;50.964;6.948;2023-12-20T02:36:46;6.28;;;2.78;;
79410;SDS011;69635;50.964;6.948;2023-12-20T02:39:12;9.23;;;4.00;;
79410;SDS011;69635;50.964;6.948;2023-12-20T02:41:38;9.63;;;2.88;;
79410;SDS011;69635;50.964;6.948;2023-12-20T02:44:03;5.97;;;2.38;;
79410;SDS011;69635;50.964;6.948;2023-12-20T02:46:29;7.15;;;2.38;;
79410;SDS011;69635;50.964;6.948;2023-12-20T02:48:54;6.90;;;2.15;;
79410;SDS011;69635;50.964;6.948;2023-12-20T02:51:20;4.43;;;2.35;;
79410;SDS011;69635;50.964;6.948;2023-12-20T02:53:45;10.18;;;2.80;;
79410;SDS011;69635;50.964;6.948;2023-12-20T02:56:11;8.52;;;1.52;;
79410;SDS011;69635;50.964;6.948;2023-12-20T02:58:36;6.15;;;2.30;;
79410;SDS011;69635;50.964;6.948;2023-12-20T03:01:01;4.75;;;1.55;;
79410;SDS011;69635;50.964;6.948;2023-12-20T03:03:27;5.88;;;2.30;;
79410;SDS011;69635;50.964;6.948;2023-12-20T03:05:52;6.18;;;1.88;;
79410;SDS011;69635;50.964;6.948;2023-12-20T03:08:18;4.07;;;2.05;;
79410;SDS011;69635;50.964;6.948;2023-12-20T03:10:43;6.10;;;1.63;;
79410;SDS011;69635;50.964;6.948;2023-12-20T03:13:09;16.70;;;1.73;;
79410;SDS011;69635;50.964;6.948;2023-12-20T03:15:34;5.22;;;1.35;;
79410;SDS011;69635;50.964;6.948;2023-12-20T03:17:59;5.72;;;1.50;;
79410;SDS011;69635;50.964;6.948;2023-12-20T03:20:25;9.70;;;1.38;;
79410;SDS011;69635;50.964;6.948;2023-12-20T03:22:53;8.07;;;1.60;;
79410;SDS011;69635;50.964;6.948;2023-12-20T03:25:18;6.00;;;1.90;;
79410;SDS011;69635;50.964;6.948;2023-12-20T03:27:43;2.35;;;0.80;;
79410;SDS011;69635;50.964;6.948;2023-12-20T03:30:09;5.55;;;1.10;;
79410;SDS011;69635;50.964;6.948;2023-12-20T03:32:35;3.42;;;0.90;;
79410;SDS011;69635;50.964;6.948;2023-12-20T03:35:01;3.03;;;1.50;;
79410;SDS011;69635;50.964;6.948;2023-12-20T03:37:27;9.50;;;2.08;;
79410;SDS011;69635;50.964;6.948;2023-12-20T03:39:53;3.60;;;1.00;;
79410;SDS011;69635;50.964;6.948;2023-12-20T03:42:18;14.45;;;1.60;;
79410;SDS011;69635;50.964;6.948;2023-12-20T03:44:43;1.30;;;0.75;;
79410;SDS011;69635;50.964;6.948;2023-12-20T03:47:09;7.55;;;1.23;;
79410;SDS011;69635;50.964;6.948;2023-12-20T03:49:34;2.30;;;1.35;;
79410;SDS011;69635;50.964;6.948;2023-12-20T03:52:02;4.97;;;1.58;;
79410;SDS011;69635;50.964;6.948;2023-12-20T03:54:28;6.50;;;1.02;;
79410;SDS011;69635;50.964;6.948;2023-12-20T03:56:53;11.18;;;1.80;;
79410;SDS011;69635;50.964;6.948;2023-12-20T03:59:19;5.90;;;1.08;;
79410;SDS011;69635;50.964;6.948;2023-12-20T04:01:45;3.35;;;1.38;;
79410;SDS011;69635;50.964;6.948;2023-12-20T04:04:10;11.63;;;2.83;;
79410;SDS011;69635;50.964;6.948;2023-12-20T04:06:36;4.35;;;1.02;;
79410;SDS011;69635;50.964;6.948;2023-12-20T04:09:02;8.57;;;1.63;;
79410;SDS011;69635;50.964;6.948;2023-12-20T04:11:28;8.77;;;1.50;;
79410;SDS011;69635;50.964;6.948;2023-12-20T04:13:53;7.30;;;1.60;;
79410;SDS011;69635;50.964;6.948;2023-12-20T04:16:19;6.63;;;2.17;;
79410;SDS011;69635;50.964;6.948;2023-12-20T04:18:44;3.22;;;1.10;;
79410;SDS011;69635;50.964;6.948;2023-12-20T04:21:10;9.10;;;2.10;;
79410;SDS011;69635;50.964;6.948;2023-12-20T04:23:35;3.47;;;1.08;;
79410;SDS011;69635;50.964;6.948;2023-12-20T04:26:01;12.00;;;1.67;;
79410;SDS011;69635;50.964;6.948;2023-12-20T04:28:26;5.90;;;1.80;;
79410;SDS011;69635;50.964;6.948;2023-12-20T04:30:51;3.80;;;1.20;;
79410;SDS011;69635;50.964;6.948;2023-12-20T04:33:17;8.48;;;2.78;;
79410;SDS011;69635;50.964;6.948;2023-12-20T04:35:42;7.15;;;2.30;;
79410;SDS011;69635;50.964;6.948;2023-12-20T04:38:08;9.52;;;1.67;;
79410;SDS011;69635;50.964;6.948;2023-12-20T04:40:34;7.85;;;1.25;;
79410;SDS011;69635;50.964;6.948;2023-12-20T04:42:59;4.47;;;1.38;;
79410;SDS011;69635;50.964;6.948;2023-12-20T04:45:24;8.60;;;1.63;;
79410;SDS011;69635;50.964;6.948;2023-12-20T04:47:50;7.97;;;1.17;;
79410;SDS011;69635;50.964;6.948;2023-12-20T04:50:16;6.35;;;1.73;;
79410;SDS011;69635;50.964;6.948;2023-12-20T04:52:42;4.97;;;1.35;;
79410;SDS011;69635;50.964;6.948;2023-12-20T04:55:07;6.65;;;1.95;;
79410;SDS011;69635;50.964;6.948;2023-12-20T04:57:34;5.93;;;1.52;;
79410;SDS011;69635;50.964;6.948;2023-12-20T04:59:59;3.00;;;1.23;;
79410;SDS011;69635;50.964;6.948;2023-12-20T05:02:25;6.68;;;1.98;;
79410;SDS011;69635;50.964;6.948;2023-12-20T05:04:50;4.90;;;1.38;;
79410;SDS011;69635;50.964;6.948;2023-12-20T05:07:16;5.40;;;1.67;;
79410;SDS011;69635;50.964;6.948;2023-12-20T05:09:41;4.82;;;1.85;;
79410;SDS011;69635;50.964;6.948;2023-12-20T05:12:07;4.82;;;1.58;;
79410;SDS011;69635;50.964;6.948;2023-12-20T05:14:32;10.27;;;1.77;;
79410;SDS011;69635;50.964;6.948;2023-12-20T05:16:57;8.10;;;1.73;;
79410;SDS011;69635;50.964;6.948;2023-12-20T05:19:23;3.70;;;1.85;;
79410;SDS011;69635;50.964;6.948;2023-12-20T05:21:49;7.90;;;2.00;;
79410;SDS011;69635;50.964;6.948;2023-12-20T05:24:14;11.40;;;2.13;;
79410;SDS011;69635;50.964;6.948;2023-12-20T05:26:40;4.45;;;1.17;;
79410;SDS011;69635;50.964;6.948;2023-12-20T05:29:05;8.15;;;1.67;;
79410;SDS011;69635;50.964;6.948;2023-12-20T05:31:31;6.22;;;1.58;;
79410;SDS011;69635;50.964;6.948;2023-12-20T05:33:56;7.32;;;1.75;;
79410;SDS011;69635;50.964;6.948;2023-12-20T05:36:22;3.20;;;1.20;;
79410;SDS011;69635;50.964;6.948;2023-12-20T05:38:47;2.63;;;1.48;;
79410;SDS011;69635;50.964;6.948;2023-12-20T05:41:13;4.75;;;1.67;;
79410;SDS011;69635;50.964;6.948;2023-12-20T05:43:38;3.97;;;1.67;;
79410;SDS011;69635;50.964;6.948;2023-12-20T05:46:04;4.70;;;2.05;;
79410;SDS011;69635;50.964;6.948;2023-12-20T05:48:29;5.47;;;1.88;;
79410;SDS011;69635;50.964;6.948;2023-12-20T05:50:55;7.60;;;2.45;;
79410;SDS011;69635;50.964;6.948;2023-12-20T05:53:20;8.07;;;2.80;;
79410;SDS011;69635;50.964;6.948;2023-12-20T05:55:45;6.00;;;2.33;;
79410;SDS011;69635;50.964;6.948;2023-12-20T05:58:11;2.92;;;1.65;;
79410;SDS011;69635;50.964;6.948;2023-12-20T06:00:36;6.28;;;1.58;;
79410;SDS011;69635;50.964;6.948;2023-12-20T06:03:02;8.32;;;2.33;;
79410;SDS011;69635;50.964;6.948;2023-12-20T06:05:29;5.20;;;1.83;;
79410;SDS011;69635;50.964;6.948;2023-12-20T06:07:55;8.07;;;2.15;;
79410;SDS011;69635;50.964;6.948;2023-12-20T06:10:22;3.70;;;1.55;;
79410;SDS011;69635;50.964;6.948;2023-12-20T06:12:48;8.25;;;1.52;;
79410;SDS011;69635;50.964;6.948;2023-12-20T06:15:15;5.78;;;1.30;;
79410;SDS011;69635;50.964;6.948;2023-12-20T06:17:40;7.95;;;1.55;;
79410;SDS011;69635;50.964;6.948;2023-12-20T06:20:06;2.17;;;1.40;;
79410;SDS011;69635;50.964;6.948;2023-12-20T06:22:32;6.07;;;1.85;;
79410;SDS011;69635;50.964;6.948;2023-12-20T06:24:59;6.90;;;2.30;;
79410;SDS011;69635;50.964;6.948;2023-12-20T06:27:24;16.50;;;2.38;;
79410;SDS011;69635;50.964;6.948;2023-12-20T06:29:50;7.85;;;1.67;;
79410;SDS011;69635;50.964;6.948;2023-12-20T06:32:15;15.38;;;2.40;;
79410;SDS011;69635;50.964;6.948;2023-12-20T06:34:40;11.60;;;2.17;;
79410;SDS011;69635;50.964;6.948;2023-12-20T06:37:06;17.40;;;2.72;;
79410;SDS011;69635;50.964;6.948;2023-12-20T06:39:31;4.13;;;1.67;;
79410;SDS011;69635;50.964;6.948;2023-12-20T06:41:58;6.85;;;1.80;;
79410;SDS011;69635;50.964;6.948;2023-12-20T06:44:24;6.78;;;1.88;;
79410;SDS011;69635;50.964;6.948;2023-12-20T06:46:50;10.20;;;2.03;;
79410;SDS011;69635;50.964;6.948;2023-12-20T06:49:15;2.20;;;1.33;;
79410;SDS011;69635;50.964;6.948;2023-12-20T06:51:40;9.45;;;2.42;;
79410;SDS011;69635;50.964;6.948;2023-12-20T06:54:06;5.55;;;2.05;;
79410;SDS011;69635;50.964;6.948;2023-12-20T06:56:32;3.20;;;1.45;;
79410;SDS011;69635;50.964;6.948;2023-12-20T06:58:57;2.58;;;1.60;;
79410;SDS011;69635;50.964;6.948;2023-12-20T07:01:23;9.48;;;2.17;;
79410;SDS011;69635;50.964;6.948;2023-12-20T07:03:48;11.98;;;3.47;;
79410;SDS011;69635;50.964;6.948;2023-12-20T07:06:14;3.15;;;1.90;;
79410;SDS011;69635;50.964;6.948;2023-12-20T07:08:41;5.10;;;2.03;;
79410;SDS011;69635;50.964;6.948;2023-12-20T07:11:06;1.90;;;1.13;;
79410;SDS011;69635;50.964;6.948;2023-12-20T07:13:32;6.70;;;1.52;;
79410;SDS011;69635;50.964;6.948;2023-12-20T07:15:58;3.75;;;1.60;;
79410;SDS011;69635;50.964;6.948;2023-12-20T07:18:23;6.20;;;2.00;;
79410;SDS011;69635;50.964;6.948;2023-12-20T07:20:49;7.32;;;2.08;;
79410;SDS011;69635;50.964;6.948;2023-12-20T07:23:14;4.50;;;1.40;;
79410;SDS011;69635;50.964;6.948;2023-12-20T07:25:39;7.43;;;1.90;;
79410;SDS011;69635;50.964;6.948;2023-12-20T07:28:05;14.32;;;2.53;;
79410;SDS011;69635;50.964;6.948;2023-12-20T07:30:30;6.22;;;2.15;;
79410;SDS011;69635;50.964;6.948;2023-12-20T07:32:56;6.68;;;2.40;;
79410;SDS011;69635;50.964;6.948;2023-12-20T07:35:23;5.07;;;2.15;;
79410;SDS011;69635;50.964;6.948;2023-12-20T07:37:48;6.13;;;1.98;;
79410;SDS011;69635;50.964;6.948;2023-12-20T07:40:15;12.65;;;3.47;;
79410;SDS011;69635;50.964;6.948;2023-12-20T07:42:42;9.70;;;3.17;;
79410;SDS011;69635;50.964;6.948;2023-12-20T07:45:08;6.90;;;1.98;;
79410;SDS011;69635;50.964;6.948;2023-12-20T07:47:35;7.60;;;2.70;;
79410;SDS011;69635;50.964;6.948;2023-12-20T07:50:01;7.72;;;1.95;;
79410;SDS011;69635;50.964;6.948;2023-12-20T07:52:27;5.05;;;1.95;;
79410;SDS011;69635;50.964;6.948;2023-12-20T07:54:55;6.10;;;2.33;;
79410;SDS011;69635;50.964;6.948;2023-12-20T07:57:21;4.68;;;1.98;;
79410;SDS011;69635;50.964;6.948;2023-12-20T07:59:46;10.48;;;1.95;;
79410;SDS011;69635;50.964;6.948;2023-12-20T08:02:12;5.35;;;2.03;;
79410;SDS011;69635;50.964;6.948;2023-12-20T08:04:37;10.38;;;1.90;;
79410;SDS011;69635;50.964;6.948;2023-12-20T08:07:03;8.10;;;1.75;;
79410;SDS011;69635;50.964;6.948;2023-12-20T08:09:28;5.97;;;2.22;;
79410;SDS011;69635;50.964;6.948;2023-12-20T08:11:54;5.13;;;2.05;;
79410;SDS011;69635;50.964;6.948;2023-12-20T08:14:20;6.80;;;2.35;;
79410;SDS011;69635;50.964;6.948;2023-12-20T08:16:45;9.65;;;2.28;;
79410;SDS011;69635;50.964;6.948;2023-12-20T08:19:11;8.15;;;2.55;;
79410;SDS011;69635;50.964;6.948;2023-12-20T08:21:37;3.80;;;1.85;;
79410;SDS011;69635;50.964;6.948;2023-12-20T08:24:02;8.93;;;3.08;;
79410;SDS011;69635;50.964;6.948;2023-12-20T08:26:28;8.73;;;2.40;;
79410;SDS011;69635;50.964;6.948;2023-12-20T08:28:53;11.57;;;2.00;;
79410;SDS011;69635;50.964;6.948;2023-12-20T08:31:19;10.75;;;3.00;;
79410;SDS011;69635;50.964;6.948;2023-12-20T08:33:45;8.20;;;3.10;;
79410;SDS011;69635;50.964;6.948;2023-12-20T08:36:12;13.77;;;2.80;;
79410;SDS011;69635;50.964;6.948;2023-12-20T08:38:37;10.13;;;2.78;;
79410;SDS011;69635;50.964;6.948;2023-12-20T08:41:03;5.60;;;1.45;;
79410;SDS011;69635;50.964;6.948;2023-12-20T08:43:32;3.70;;;1.77;;
79410;SDS011;69635;50.964;6.948;2023-12-20T08:45:59;5.82;;;2.30;;
79410;SDS011;69635;50.964;6.948;2023-12-20T08:48:24;6.13;;;1.38;;
79410;SDS011;69635;50.964;6.948;2023-12-20T08:50:50;5.82;;;1.92;;
79410;SDS011;69635;50.964;6.948;2023-12-20T08:53:17;10.80;;;2.50;;
79410;SDS011;69635;50.964;6.948;2023-12-20T08:55:43;12.68;;;2.78;;
79410;SDS011;69635;50.964;6.948;2023-12-20T08:58:08;4.82;;;1.40;;
79410;SDS011;69635;50.964;6.948;2023-12-20T09:00:34;8.43;;;1.45;;
79410;SDS011;69635;50.964;6.948;2023-12-20T09:03:01;5.38;;;1.67;;
79410;SDS011;69635;50.964;6.948;2023-12-20T09:05:27;3.00;;;1.77;;
79410;SDS011;69635;50.964;6.948;2023-12-20T09:07:53;6.97;;;2.00;;
79410;SDS011;69635;50.964;6.948;2023-12-20T09:10:19;9.38;;;2.08;;
79410;SDS011;69635;50.964;6.948;2023-12-20T09:12:50;5.65;;;1.55;;
79410;SDS011;69635;50.964;6.948;2023-12-20T09:15:19;6.05;;;1.45;;
79410;SDS011;69635;50.964;6.948;2023-12-20T09:17:44;4.50;;;1.92;;
79410;SDS011;69635;50.964;6.948;2023-12-20T09:20:10;7.47;;;2.22;;
79410;SDS011;69635;50.964;6.948;2023-12-20T09:22:35;5.70;;;2.53;;
79410;SDS011;69635;50.964;6.948;2023-12-20T09:25:03;3.63;;;1.42;;
79410;SDS011;69635;50.964;6.948;2023-12-20T09:27:29;5.35;;;1.73;;
79410;SDS011;69635;50.964;6.948;2023-12-20T09:29:54;6.18;;;1.63;;
79410;SDS011;69635;50.964;6.948;2023-12-20T09:32:20;7.63;;;1.77;;
79410;SDS011;69635;50.964;6.948;2023-12-20T09:34:46;5.85;;;1.13;;
79410;SDS011;69635;50.964;6.948;2023-12-20T09:37:13;9.68;;;2.13;;
79410;SDS011;69635;50.964;6.948;2023-12-20T09:39:38;3.72;;;1.95;;
79410;SDS011;69635;50.964;6.948;2023-12-20T09:42:04;9.13;;;1.90;;
79410;SDS011;69635;50.964;6.948;2023-12-20T09:44:31;5.97;;;1.20;;
79410;SDS011;69635;50.964;6.948;2023-12-20T09:47:02;7.40;;;1.67;;
79410;SDS011;69635;50.964;6.948;2023-12-20T09:49:28;4.78;;;1.42;;
79410;SDS011;69635;50.964;6.948;2023-12-20T09:51:55;2.72;;;1.30;;
79410;SDS011;69635;50.964;6.948;2023-12-20T09:54:21;7.53;;;1.48;;
79410;SDS011;69635;50.964;6.948;2023-12-20T09:56:47;4.20;;;1.17;;
79410;SDS011;69635;50.964;6.948;2023-12-20T09:59:13;4.53;;;1.58;;
79410;SDS011;69635;50.964;6.948;2023-12-20T10:01:39;2.30;;;1.92;;
79410;SDS011;69635;50.964;6.948;2023-12-20T10:04:06;6.25;;;1.42;;
79410;SDS011;69635;50.964;6.948;2023-12-20T10:06:43;6.43;;;2.38;;
79410;SDS011;69635;50.964;6.948;2023-12-20T10:09:09;6.22;;;1.58;;
79410;SDS011;69635;50.964;6.948;2023-12-20T10:11:36;7.20;;;1.60;;
79410;SDS011;69635;50.964;6.948;2023-12-20T10:14:02;5.35;;;1.40;;
79410;SDS011;69635;50.964;6.948;2023-12-20T10:16:28;5.47;;;1.73;;
79410;SDS011;69635;50.964;6.948;2023-12-20T10:18:54;2.80;;;1.08;;
79410;SDS011;69635;50.964;6.948;2023-12-20T10:21:21;4.82;;;1.30;;
79410;SDS011;69635;50.964;6.948;2023-12-20T10:23:48;2.60;;;1.50;;
79410;SDS011;69635;50.964;6.948;2023-12-20T10:26:20;5.57;;;2.05;;
79410;SDS011;69635;50.964;6.948;2023-12-20T10:28:49;3.97;;;1.52;;
79410;SDS011;69635;50.964;6.948;2023-12-20T10:31:32;1.92;;;1.40;;
79410;SDS011;69635;50.964;6.948;2023-12-20T10:33:59;3.47;;;0.80;;
79410;SDS011;69635;50.964;6.948;2023-12-20T10:36:26;10.82;;;2.10;;
79410;SDS011;69635;50.964;6.948;2023-12-20T10:38:53;5.70;;;1.48;;
79410;SDS011;69635;50.964;6.948;2023-12-20T10:41:21;3.10;;;1.08;;
79410;SDS011;69635;50.964;6.948;2023-12-20T10:43:58;5.93;;;1.65;;
79410;SDS011;69635;50.964;6.948;2023-12-20T10:46:25;9.98;;;1.55;;
79410;SDS011;69635;50.964;6.948;2023-12-20T10:48:55;6.38;;;1.40;;
79410;SDS011;69635;50.964;6.948;2023-12-20T10:51:24;2.45;;;1.58;;
79410;SDS011;69635;50.964;6.948;2023-12-20T10:53:55;6.57;;;1.67;;
79410;SDS011;69635;50.964;6.948;2023-12-20T10:56:21;10.85;;;1.63;;
79410;SDS011;69635;50.964;6.948;2023-12-20T10:58:48;6.13;;;1.50;;
79410;SDS011;69635;50.964;6.948;2023-12-20T11:01:14;6.43;;;1.80;;
79410;SDS011;69635;50.964;6.948;2023-12-20T11:03:51;2.97;;;1.40;;
79410;SDS011;69635;50.964;6.948;2023-12-20T11:08:57;2.58;;;1.50;;
79410;SDS011;69635;50.964;6.948;2023-12-20T11:17:11;4.85;;;1.48;;
79410;SDS011;69635;50.964;6.948;2023-12-20T11:22:26;6.68;;;1.55;;
79410;SDS011;69635;50.964;6.948;2023-12-20T11:25:02;4.20;;;1.33;;
79410;SDS011;69635;50.964;6.948;2023-12-20T11:27:31;4.53;;;0.57;;
79410;SDS011;69635;50.964;6.948;2023-12-20T11:29:57;12.52;;;2.10;;
79410;SDS011;69635;50.964;6.948;2023-12-20T11:34:50;5.10;;;1.48;;
79410;SDS011;69635;50.964;6.948;2023-12-20T11:37:16;0.70;;;0.55;;
79410;SDS011;69635;50.964;6.948;2023-12-20T11:39:42;5.03;;;1.20;;
79410;SDS011;69635;50.964;6.948;2023-12-20T11:42:09;2.80;;;1.23;;
79410;SDS011;69635;50.964;6.948;2023-12-20T11:44:36;4.45;;;1.27;;
79410;SDS011;69635;50.964;6.948;2023-12-20T11:47:02;4.85;;;1.10;;
79410;SDS011;69635;50.964;6.948;2023-12-20T11:49:28;8.70;;;1.98;;
79410;SDS011;69635;50.964;6.948;2023-12-20T11:51:58;5.85;;;1.17;;
79410;SDS011;69635;50.964;6.948;2023-12-20T11:54:25;7.80;;;2.05;;
79410;SDS011;69635;50.964;6.948;2023-12-20T11:56:51;2.92;;;1.00;;
79410;SDS011;69635;50.964;6.948;2023-12-20T11:59:16;3.97;;;1.30;;
79410;SDS011;69635;50.964;6.948;2023-12-20T12:01:47;3.85;;;0.90;;
79410;SDS011;69635;50.964;6.948;2023-12-20T12:04:14;4.93;;;1.30;;
79410;SDS011;69635;50.964;6.948;2023-12-20T12:06:40;10.20;;;1.77;;
79410;SDS011;69635;50.964;6.948;2023-12-20T12:09:06;3.20;;;1.08;;
79410;SDS011;69635;50.964;6.948;2023-12-20T12:11:31;7.78;;;1.52;;
79410;SDS011;69635;50.964;6.948;2023-12-20T12:13:57;3.05;;;0.77;;
79410;SDS011;69635;50.964;6.948;2023-12-20T12:16:22;6.82;;;2.13;;
79410;SDS011;69635;50.964;6.948;2023-12-20T12:18:57;6.38;;;1.30;;
79410;SDS011;69635;50.964;6.948;2023-12-20T12:21:24;8.65;;;2.00;;
79410;SDS011;69635;50.964;6.948;2023-12-20T12:23:49;8.63;;;1.63;;
79410;SDS011;69635;50.964;6.948;2023-12-20T12:26:15;3.33;;;1.77;;
79410;SDS011;69635;50.964;6.948;2023-12-20T12:28:41;4.15;;;1.73;;
79410;SDS011;69635;50.964;6.948;2023-12-20T12:31:07;3.60;;;1.60;;
79410;SDS011;69635;50.964;6.948;2023-12-20T12:33:33;4.10;;;1.63;;
79410;SDS011;69635;50.964;6.948;2023-12-20T12:36:00;5.75;;;1.38;;
79410;SDS011;69635;50.964;6.948;2023-12-20T12:38:26;8.38;;;2.28;;
79410;SDS011;69635;50.964;6.948;2023-12-20T12:40:52;3.08;;;1.67;;
79410;SDS011;69635;50.964;6.948;2023-12-20T12:43:18;2.97;;;1.02;;
79410;SDS011;69635;50.964;6.948;2023-12-20T12:45:44;8.38;;;2.08;;
79410;SDS011;69635;50.964;6.948;2023-12-20T12:48:10;4.68;;;1.30;;
79410;SDS011;69635;50.964;6.948;2023-12-20T12:50:37;7.28;;;1.77;;
79410;SDS011;69635;50.964;6.948;2023-12-20T12:53:02;4.32;;;1.77;;
79410;SDS011;69635;50.964;6.948;2023-12-20T12:55:28;5.55;;;1.80;;
79410;SDS011;69635;50.964;6.948;2023-12-20T12:57:53;6.82;;;2.20;;
79410;SDS011;69635;50.964;6.948;2023-12-20T13:00:19;4.90;;;1.83;;
79410;SDS011;69635;50.964;6.948;2023-12-20T13:02:45;3.33;;;1.15;;
79410;SDS011;69635;50.964;6.948;2023-12-20T13:05:10;6.95;;;2.17;;
79410;SDS011;69635;50.964;6.948;2023-12-20T13:07:36;3.50;;;1.80;;
79410;SDS011;69635;50.964;6.948;2023-12-20T13:10:07;9.43;;;1.63;;
79410;SDS011;69635;50.964;6.948;2023-12-20T13:12:32;5.97;;;1.70;;
79410;SDS011;69635;50.964;6.948;2023-12-20T13:14:58;4.95;;;1.77;;
79410;SDS011;69635;50.964;6.948;2023-12-20T13:17:25;11.90;;;1.98;;
79410;SDS011;69635;50.964;6.948;2023-12-20T13:19:59;2.20;;;1.48;;
79410;SDS011;69635;50.964;6.948;2023-12-20T13:22:25;5.95;;;1.55;;
79410;SDS011;69635;50.964;6.948;2023-12-20T13:24:50;6.85;;;1.67;;
79410;SDS011;69635;50.964;6.948;2023-12-20T13:27:16;10.73;;;1.85;;
79410;SDS011;69635;50.964;6.948;2023-12-20T13:29:41;8.80;;;2.60;;
79410;SDS011;69635;50.964;6.948;2023-12-20T13:32:07;4.68;;;1.77;;
79410;SDS011;69635;50.964;6.948;2023-12-20T13:34:32;5.13;;;1.48;;
79410;SDS011;69635;50.964;6.948;2023-12-20T13:36:57;12.23;;;2.17;;
79410;SDS011;69635;50.964;6.948;2023-12-20T13:39:24;10.05;;;2.03;;
79410;SDS011;69635;50.964;6.948;2023-12-20T13:41:50;10.60;;;2.65;;
79410;SDS011;69635;50.964;6.948;2023-12-20T13:44:16;5.70;;;1.83;;
79410;SDS011;69635;50.964;6.948;2023-12-20T13:46:41;8.63;;;2.58;;
79410;SDS011;69635;50.964;6.948;2023-12-20T13:49:07;5.72;;;1.92;;
79410;SDS011;69635;50.964;6.948;2023-12-20T13:51:32;4.40;;;1.42;;
79410;SDS011;69635;50.964;6.948;2023-12-20T13:53:58;4.90;;;1.77;;
79410;SDS011;69635;50.964;6.948;2023-12-20T13:56:24;7.35;;;1.80;;
79410;SDS011;69635;50.964;6.948;2023-12-20T13:58:50;4.65;;;1.60;;
79410;SDS011;69635;50.964;6.948;2023-12-20T14:01:17;5.30;;;1.77;;
79410;SDS011;69635;50.964;6.948;2023-12-20T14:03:43;7.15;;;1.98;;
79410;SDS011;69635;50.964;6.948;2023-12-20T14:06:08;4.88;;;1.83;;
79410;SDS011;69635;50.964;6.948;2023-12-20T14:08:34;3.42;;;1.05;;
79410;SDS011;69635;50.964;6.948;2023-12-20T14:11:01;5.32;;;1.58;;
79410;SDS011;69635;50.964;6.948;2023-12-20T14:13:26;2.28;;;1.17;;
79410;SDS011;69635;50.964;6.948;2023-12-20T14:15:52;4.72;;;1.38;;
79410;SDS011;69635;50.964;6.948;2023-12-20T14:18:19;4.30;;;1.05;;
79410;SDS011;69635;50.964;6.948;2023-12-20T14:20:44;5.20;;;1.83;;
79410;SDS011;69635;50.964;6.948;2023-12-20T14:23:12;10.52;;;1.63;;
79410;SDS011;69635;50.964;6.948;2023-12-20T14:25:39;5.93;;;1.73;;
79410;SDS011;69635;50.964;6.948;2023-12-20T14:28:06;4.03;;;1.67;;
79410;SDS011;69635;50.964;6.948;2023-12-20T14:30:31;6.43;;;1.75;;
79410;SDS011;69635;50.964;6.948;2023-12-20T14:32:58;4.50;;;1.55;;
79410;SDS011;69635;50.964;6.948;2023-12-20T14:35:23;3.97;;;1.40;;
79410;SDS011;69635;50.964;6.948;2023-12-20T14:37:49;3.85;;;1.92;;
79410;SDS011;69635;50.964;6.948;2023-12-20T14:40:15;6.78;;;1.40;;
79410;SDS011;69635;50.964;6.948;2023-12-20T14:42:41;2.65;;;1.02;;
79410;SDS011;69635;50.964;6.948;2023-12-20T14:45:08;3.30;;;1.48;;
79410;SDS011;69635;50.964;6.948;2023-12-20T14:47:35;3.13;;;1.48;;
79410;SDS011;69635;50.964;6.948;2023-12-20T14:50:02;4.65;;;1.65;;
79410;SDS011;69635;50.964;6.948;2023-12-20T14:52:29;4.82;;;1.48;;